sensor_id;sensor_type;location;lat;lon;timestamp;P1;durP1;ratioP1;P2;durP2;ratioP2
18224;SDS011;9237;48.590;8.854;2023-08-07T00:01:36;0.80;;;0.80;;
18224;SDS011;9237;48.590;8.854;2023-08-07T00:04:03;0.70;;;0.70;;
18224;SDS011;9237;48.590;8.854;2023-08-07T00:06:30;0.80;;;0.80;;
18224;SDS011;9237;48.590;8.854;2023-08-07T00:08:56;0.80;;;0.80;;
18224;SDS011;9237;48.590;8.854;2023-08-07T00:11:23;0.80;;;0.80;;
18224;SDS011;9237;48.590;8.854;2023-08-07T00:13:50;0.90;;;0.90;;
18224;SDS011;9237;48.590;8.854;2023-08-07T00:16:17;0.70;;;0.70;;
18224;SDS011;9237;48.590;8.854;2023-08-07T00:18:45;0.70;;;0.70;;
18224;SDS011;9237;48.590;8.854;2023-08-07T00:21:11;0.80;;;0.80;;
18224;SDS011;9237;48.590;8.854;2023-08-07T00:23:38;0.80;;;0.80;;
18224;SDS011;9237;48.590;8.854;2023-08-07T00:26:05;0.80;;;0.80;;
18224;SDS011;9237;48.590;8.854;2023-08-07T00:28:32;0.80;;;0.80;;
18224;SDS011;9237;48.590;8.854;2023-08-07T00:30:58;0.80;;;0.80;;
18224;SDS011;9237;48.590;8.854;2023-08-07T00:33:25;0.80;;;0.80;;
18224;SDS011;9237;48.590;8.854;2023-08-07T00:35:53;0.80;;;0.80;;
18224;SDS011;9237;48.590;8.854;2023-08-07T00:38:20;0.80;;;0.80;;
18224;SDS011;9237;48.590;8.854;2023-08-07T00:40:47;0.70;;;0.70;;
18224;SDS011;9237;48.590;8.854;2023-08-07T00:43:14;0.80;;;0.80;;
18224;SDS011;9237;48.590;8.854;2023-08-07T00:45:41;0.77;;;0.77;;
18224;SDS011;9237;48.590;8.854;2023-08-07T00:48:10;0.80;;;0.80;;
18224;SDS011;9237;48.590;8.854;2023-08-07T00:50:38;0.80;;;0.80;;
18224;SDS011;9237;48.590;8.854;2023-08-07T00:53:06;0.80;;;0.80;;
18224;SDS011;9237;48.590;8.854;2023-08-07T00:55:34;0.80;;;0.80;;
18224;SDS011;9237;48.590;8.854;2023-08-07T00:58:01;0.80;;;0.80;;
18224;SDS011;9237;48.590;8.854;2023-08-07T01:00:28;0.80;;;0.80;;
18224;SDS011;9237;48.590;8.854;2023-08-07T01:02:55;0.80;;;0.80;;
18224;SDS011;9237;48.590;8.854;2023-08-07T01:05:22;0.80;;;0.80;;
18224;SDS011;9237;48.590;8.854;2023-08-07T01:07:50;0.80;;;0.80;;
18224;SDS011;9237;48.590;8.854;2023-08-07T01:10:22;0.80;;;0.80;;
18224;SDS011;9237;48.590;8.854;2023-08-07T01:13:00;0.80;;;0.80;;
18224;SDS011;9237;48.590;8.854;2023-08-07T01:15:33;0.80;;;0.80;;
18224;SDS011;9237;48.590;8.854;2023-08-07T01:18:02;0.70;;;0.70;;
18224;SDS011;9237;48.590;8.854;2023-08-07T01:20:30;0.80;;;0.80;;
18224;SDS011;9237;48.590;8.854;2023-08-07T01:22:59;0.80;;;0.80;;
18224;SDS011;9237;48.590;8.854;2023-08-07T01:25:26;0.80;;;0.80;;
18224;SDS011;9237;48.590;8.854;2023-08-07T01:27:55;0.73;;;0.73;;
18224;SDS011;9237;48.590;8.854;2023-08-07T01:30:29;0.70;;;0.70;;
18224;SDS011;9237;48.590;8.854;2023-08-07T01:33:04;0.73;;;0.73;;
18224;SDS011;9237;48.590;8.854;2023-08-07T01:35:39;0.80;;;0.80;;
18224;SDS011;9237;48.590;8.854;2023-08-07T01:38:09;0.70;;;0.70;;
18224;SDS011;9237;48.590;8.854;2023-08-07T01:40:38;0.80;;;0.80;;
18224;SDS011;9237;48.590;8.854;2023-08-07T01:43:06;0.80;;;0.80;;
18224;SDS011;9237;48.590;8.854;2023-08-07T01:45:34;0.77;;;0.77;;
18224;SDS011;9237;48.590;8.854;2023-08-07T01:48:01;0.80;;;0.80;;
18224;SDS011;9237;48.590;8.854;2023-08-07T01:50:27;0.80;;;0.80;;
18224;SDS011;9237;48.590;8.854;2023-08-07T01:52:55;0.80;;;0.80;;
18224;SDS011;9237;48.590;8.854;2023-08-07T01:55:23;0.70;;;0.70;;
18224;SDS011;9237;48.590;8.854;2023-08-07T01:57:50;0.80;;;0.80;;
18224;SDS011;9237;48.590;8.854;2023-08-07T02:00:17;0.70;;;0.70;;
18224;SDS011;9237;48.590;8.854;2023-08-07T02:02:44;0.80;;;0.80;;
18224;SDS011;9237;48.590;8.854;2023-08-07T02:05:12;0.80;;;0.80;;
18224;SDS011;9237;48.590;8.854;2023-08-07T02:07:39;0.70;;;0.70;;
18224;SDS011;9237;48.590;8.854;2023-08-07T02:10:06;0.80;;;0.80;;
18224;SDS011;9237;48.590;8.854;2023-08-07T02:12:34;0.80;;;0.80;;
18224;SDS011;9237;48.590;8.854;2023-08-07T02:15:01;0.70;;;0.70;;
18224;SDS011;9237;48.590;8.854;2023-08-07T02:17:28;0.80;;;0.80;;
18224;SDS011;9237;48.590;8.854;2023-08-07T02:19:56;0.70;;;0.70;;
18224;SDS011;9237;48.590;8.854;2023-08-07T02:22:23;0.70;;;0.70;;
18224;SDS011;9237;48.590;8.854;2023-08-07T02:24:50;0.73;;;0.73;;
18224;SDS011;9237;48.590;8.854;2023-08-07T02:27:17;0.77;;;0.77;;
18224;SDS011;9237;48.590;8.854;2023-08-07T02:29:45;0.80;;;0.80;;
18224;SDS011;9237;48.590;8.854;2023-08-07T02:32:11;0.70;;;0.70;;
18224;SDS011;9237;48.590;8.854;2023-08-07T02:34:38;0.80;;;0.80;;
18224;SDS011;9237;48.590;8.854;2023-08-07T02:37:05;0.80;;;0.80;;
18224;SDS011;9237;48.590;8.854;2023-08-07T02:39:32;0.80;;;0.80;;
18224;SDS011;9237;48.590;8.854;2023-08-07T02:41:59;0.80;;;0.80;;
18224;SDS011;9237;48.590;8.854;2023-08-07T02:44:25;0.80;;;0.80;;
18224;SDS011;9237;48.590;8.854;2023-08-07T02:46:53;0.80;;;0.80;;
18224;SDS011;9237;48.590;8.854;2023-08-07T02:49:20;0.80;;;0.80;;
18224;SDS011;9237;48.590;8.854;2023-08-07T02:51:47;0.80;;;0.80;;
18224;SDS011;9237;48.590;8.854;2023-08-07T02:54:14;0.80;;;0.80;;
18224;SDS011;9237;48.590;8.854;2023-08-07T02:56:41;0.90;;;0.90;;
18224;SDS011;9237;48.590;8.854;2023-08-07T02:59:07;0.80;;;0.80;;
18224;SDS011;9237;48.590;8.854;2023-08-07T03:01:34;0.70;;;0.70;;
18224;SDS011;9237;48.590;8.854;2023-08-07T03:04:02;0.80;;;0.80;;
18224;SDS011;9237;48.590;8.854;2023-08-07T03:06:29;0.80;;;0.80;;
18224;SDS011;9237;48.590;8.854;2023-08-07T03:08:56;0.70;;;0.70;;
18224;SDS011;9237;48.590;8.854;2023-08-07T03:11:23;0.80;;;0.80;;
18224;SDS011;9237;48.590;8.854;2023-08-07T03:13:50;0.73;;;0.73;;
18224;SDS011;9237;48.590;8.854;2023-08-07T03:16:17;0.70;;;0.70;;
18224;SDS011;9237;48.590;8.854;2023-08-07T03:18:44;0.70;;;0.70;;
18224;SDS011;9237;48.590;8.854;2023-08-07T03:21:13;0.80;;;0.80;;
18224;SDS011;9237;48.590;8.854;2023-08-07T03:23:40;0.80;;;0.80;;
18224;SDS011;9237;48.590;8.854;2023-08-07T03:26:07;0.70;;;0.70;;
18224;SDS011;9237;48.590;8.854;2023-08-07T03:28:35;0.80;;;0.80;;
18224;SDS011;9237;48.590;8.854;2023-08-07T03:31:02;0.80;;;0.80;;
18224;SDS011;9237;48.590;8.854;2023-08-07T03:33:29;0.80;;;0.80;;
18224;SDS011;9237;48.590;8.854;2023-08-07T03:35:56;0.90;;;0.90;;
18224;SDS011;9237;48.590;8.854;2023-08-07T03:38:24;0.90;;;0.90;;
18224;SDS011;9237;48.590;8.854;2023-08-07T03:40:51;0.70;;;0.70;;
18224;SDS011;9237;48.590;8.854;2023-08-07T03:43:18;0.80;;;0.80;;
18224;SDS011;9237;48.590;8.854;2023-08-07T03:45:45;0.80;;;0.80;;
18224;SDS011;9237;48.590;8.854;2023-08-07T03:48:12;0.70;;;0.70;;
18224;SDS011;9237;48.590;8.854;2023-08-07T03:50:38;0.80;;;0.80;;
18224;SDS011;9237;48.590;8.854;2023-08-07T03:53:05;0.80;;;0.80;;
18224;SDS011;9237;48.590;8.854;2023-08-07T03:55:34;0.80;;;0.80;;
18224;SDS011;9237;48.590;8.854;2023-08-07T03:58:01;0.80;;;0.80;;
18224;SDS011;9237;48.590;8.854;2023-08-07T04:00:28;0.70;;;0.70;;
18224;SDS011;9237;48.590;8.854;2023-08-07T04:02:55;0.80;;;0.80;;
18224;SDS011;9237;48.590;8.854;2023-08-07T04:05:21;0.80;;;0.80;;
18224;SDS011;9237;48.590;8.854;2023-08-07T04:07:48;0.80;;;0.80;;
18224;SDS011;9237;48.590;8.854;2023-08-07T04:10:15;0.80;;;0.80;;
18224;SDS011;9237;48.590;8.854;2023-08-07T04:12:43;0.80;;;0.80;;
18224;SDS011;9237;48.590;8.854;2023-08-07T04:15:10;0.80;;;0.80;;
18224;SDS011;9237;48.590;8.854;2023-08-07T04:17:37;0.80;;;0.80;;
18224;SDS011;9237;48.590;8.854;2023-08-07T04:20:04;0.80;;;0.80;;
18224;SDS011;9237;48.590;8.854;2023-08-07T04:22:33;0.80;;;0.80;;
18224;SDS011;9237;48.590;8.854;2023-08-07T04:25:00;0.80;;;0.80;;
18224;SDS011;9237;48.590;8.854;2023-08-07T04:27:27;0.80;;;0.80;;
18224;SDS011;9237;48.590;8.854;2023-08-07T04:29:55;0.80;;;0.80;;
18224;SDS011;9237;48.590;8.854;2023-08-07T04:32:22;0.80;;;0.80;;
18224;SDS011;9237;48.590;8.854;2023-08-07T04:34:49;0.80;;;0.80;;
18224;SDS011;9237;48.590;8.854;2023-08-07T04:37:16;0.80;;;0.80;;
18224;SDS011;9237;48.590;8.854;2023-08-07T04:39:43;0.80;;;0.80;;
18224;SDS011;9237;48.590;8.854;2023-08-07T04:42:10;0.90;;;0.90;;
18224;SDS011;9237;48.590;8.854;2023-08-07T04:44:36;0.80;;;0.80;;
18224;SDS011;9237;48.590;8.854;2023-08-07T04:47:05;0.80;;;0.80;;
18224;SDS011;9237;48.590;8.854;2023-08-07T04:49:32;0.87;;;0.87;;
18224;SDS011;9237;48.590;8.854;2023-08-07T04:51:59;0.80;;;0.80;;
18224;SDS011;9237;48.590;8.854;2023-08-07T04:54:26;0.80;;;0.80;;
18224;SDS011;9237;48.590;8.854;2023-08-07T04:56:52;0.80;;;0.80;;
18224;SDS011;9237;48.590;8.854;2023-08-07T04:59:19;0.80;;;0.80;;
18224;SDS011;9237;48.590;8.854;2023-08-07T05:01:46;0.80;;;0.80;;
18224;SDS011;9237;48.590;8.854;2023-08-07T05:04:14;0.90;;;0.90;;
18224;SDS011;9237;48.590;8.854;2023-08-07T05:06:41;0.80;;;0.80;;
18224;SDS011;9237;48.590;8.854;2023-08-07T05:09:07;0.80;;;0.80;;
18224;SDS011;9237;48.590;8.854;2023-08-07T05:11:34;0.80;;;0.80;;
18224;SDS011;9237;48.590;8.854;2023-08-07T05:14:01;0.70;;;0.70;;
18224;SDS011;9237;48.590;8.854;2023-08-07T05:16:28;0.80;;;0.80;;
18224;SDS011;9237;48.590;8.854;2023-08-07T05:18:55;0.80;;;0.80;;
18224;SDS011;9237;48.590;8.854;2023-08-07T05:21:23;0.80;;;0.80;;
18224;SDS011;9237;48.590;8.854;2023-08-07T05:23:50;0.70;;;0.70;;
18224;SDS011;9237;48.590;8.854;2023-08-07T05:26:18;0.80;;;0.80;;
18224;SDS011;9237;48.590;8.854;2023-08-07T05:28:45;0.80;;;0.80;;
18224;SDS011;9237;48.590;8.854;2023-08-07T05:31:12;0.80;;;0.80;;
18224;SDS011;9237;48.590;8.854;2023-08-07T05:33:39;0.80;;;0.80;;
18224;SDS011;9237;48.590;8.854;2023-08-07T05:36:06;0.70;;;0.70;;
18224;SDS011;9237;48.590;8.854;2023-08-07T05:38:34;0.80;;;0.80;;
18224;SDS011;9237;48.590;8.854;2023-08-07T05:41:01;0.90;;;0.90;;
18224;SDS011;9237;48.590;8.854;2023-08-07T05:43:28;0.80;;;0.80;;
18224;SDS011;9237;48.590;8.854;2023-08-07T05:45:54;0.70;;;0.70;;
18224;SDS011;9237;48.590;8.854;2023-08-07T05:48:21;0.70;;;0.70;;
18224;SDS011;9237;48.590;8.854;2023-08-07T05:50:48;0.70;;;0.70;;
18224;SDS011;9237;48.590;8.854;2023-08-07T05:53:15;0.70;;;0.70;;
18224;SDS011;9237;48.590;8.854;2023-08-07T05:55:43;0.70;;;0.70;;
18224;SDS011;9237;48.590;8.854;2023-08-07T05:58:10;0.80;;;0.80;;
18224;SDS011;9237;48.590;8.854;2023-08-07T06:00:37;0.70;;;0.70;;
18224;SDS011;9237;48.590;8.854;2023-08-07T06:03:04;0.60;;;0.60;;
18224;SDS011;9237;48.590;8.854;2023-08-07T06:05:30;0.70;;;0.70;;
18224;SDS011;9237;48.590;8.854;2023-08-07T06:07:57;0.70;;;0.70;;
18224;SDS011;9237;48.590;8.854;2023-08-07T06:10:24;0.70;;;0.70;;
18224;SDS011;9237;48.590;8.854;2023-08-07T06:12:52;0.70;;;0.70;;
18224;SDS011;9237;48.590;8.854;2023-08-07T06:15:19;0.70;;;0.70;;
18224;SDS011;9237;48.590;8.854;2023-08-07T06:17:46;0.70;;;0.70;;
18224;SDS011;9237;48.590;8.854;2023-08-07T06:20:13;0.70;;;0.70;;
18224;SDS011;9237;48.590;8.854;2023-08-07T06:22:41;0.70;;;0.70;;
18224;SDS011;9237;48.590;8.854;2023-08-07T06:25:08;0.70;;;0.70;;
18224;SDS011;9237;48.590;8.854;2023-08-07T06:27:35;0.70;;;0.70;;
18224;SDS011;9237;48.590;8.854;2023-08-07T06:30:05;0.70;;;0.70;;
18224;SDS011;9237;48.590;8.854;2023-08-07T06:32:33;0.70;;;0.70;;
18224;SDS011;9237;48.590;8.854;2023-08-07T06:35:01;0.70;;;0.70;;
18224;SDS011;9237;48.590;8.854;2023-08-07T06:37:29;0.70;;;0.70;;
18224;SDS011;9237;48.590;8.854;2023-08-07T06:39:56;0.70;;;0.70;;
18224;SDS011;9237;48.590;8.854;2023-08-07T06:42:23;0.70;;;0.70;;
18224;SDS011;9237;48.590;8.854;2023-08-07T06:44:50;0.90;;;0.90;;
18224;SDS011;9237;48.590;8.854;2023-08-07T06:47:18;0.70;;;0.70;;
18224;SDS011;9237;48.590;8.854;2023-08-07T06:49:44;0.70;;;0.70;;
18224;SDS011;9237;48.590;8.854;2023-08-07T06:52:11;0.80;;;0.80;;
18224;SDS011;9237;48.590;8.854;2023-08-07T06:54:38;0.70;;;0.70;;
18224;SDS011;9237;48.590;8.854;2023-08-07T06:57:05;0.70;;;0.70;;
18224;SDS011;9237;48.590;8.854;2023-08-07T06:59:32;0.70;;;0.70;;
18224;SDS011;9237;48.590;8.854;2023-08-07T07:01:59;0.70;;;0.70;;
18224;SDS011;9237;48.590;8.854;2023-08-07T07:04:27;0.70;;;0.70;;
18224;SDS011;9237;48.590;8.854;2023-08-07T07:06:54;0.70;;;0.70;;
18224;SDS011;9237;48.590;8.854;2023-08-07T07:09:20;0.70;;;0.70;;
18224;SDS011;9237;48.590;8.854;2023-08-07T07:11:47;0.70;;;0.70;;
18224;SDS011;9237;48.590;8.854;2023-08-07T07:14:14;0.70;;;0.70;;
18224;SDS011;9237;48.590;8.854;2023-08-07T07:16:41;0.70;;;0.70;;
18224;SDS011;9237;48.590;8.854;2023-08-07T07:19:08;0.70;;;0.70;;
18224;SDS011;9237;48.590;8.854;2023-08-07T07:21:36;0.70;;;0.70;;
18224;SDS011;9237;48.590;8.854;2023-08-07T07:24:03;0.70;;;0.70;;
18224;SDS011;9237;48.590;8.854;2023-08-07T07:26:31;0.70;;;0.70;;
18224;SDS011;9237;48.590;8.854;2023-08-07T07:28:58;0.70;;;0.70;;
18224;SDS011;9237;48.590;8.854;2023-08-07T07:31:25;0.70;;;0.70;;
18224;SDS011;9237;48.590;8.854;2023-08-07T07:33:51;0.70;;;0.70;;
18224;SDS011;9237;48.590;8.854;2023-08-07T07:36:18;0.70;;;0.70;;
18224;SDS011;9237;48.590;8.854;2023-08-07T07:38:46;0.70;;;0.70;;
18224;SDS011;9237;48.590;8.854;2023-08-07T07:41:14;0.70;;;0.70;;
18224;SDS011;9237;48.590;8.854;2023-08-07T07:43:41;0.70;;;0.70;;
18224;SDS011;9237;48.590;8.854;2023-08-07T07:46:08;0.70;;;0.70;;
18224;SDS011;9237;48.590;8.854;2023-08-07T07:48:35;0.70;;;0.70;;
18224;SDS011;9237;48.590;8.854;2023-08-07T07:51:02;0.70;;;0.70;;
18224;SDS011;9237;48.590;8.854;2023-08-07T07:53:29;0.70;;;0.70;;
18224;SDS011;9237;48.590;8.854;2023-08-07T07:55:58;0.70;;;0.70;;
18224;SDS011;9237;48.590;8.854;2023-08-07T07:58:25;0.70;;;0.70;;
18224;SDS011;9237;48.590;8.854;2023-08-07T08:00:51;0.70;;;0.70;;
18224;SDS011;9237;48.590;8.854;2023-08-07T08:03:19;0.70;;;0.70;;
18224;SDS011;9237;48.590;8.854;2023-08-07T08:05:49;0.70;;;0.70;;
18224;SDS011;9237;48.590;8.854;2023-08-07T08:08:16;0.70;;;0.70;;
18224;SDS011;9237;48.590;8.854;2023-08-07T08:10:43;0.70;;;0.70;;
18224;SDS011;9237;48.590;8.854;2023-08-07T08:13:13;0.70;;;0.70;;
18224;SDS011;9237;48.590;8.854;2023-08-07T08:15:40;0.80;;;0.80;;
18224;SDS011;9237;48.590;8.854;2023-08-07T08:18:07;0.70;;;0.70;;
18224;SDS011;9237;48.590;8.854;2023-08-07T08:20:33;0.70;;;0.70;;
18224;SDS011;9237;48.590;8.854;2023-08-07T08:23:00;0.70;;;0.70;;
18224;SDS011;9237;48.590;8.854;2023-08-07T08:25:27;0.70;;;0.70;;
18224;SDS011;9237;48.590;8.854;2023-08-07T08:27:54;0.60;;;0.60;;
18224;SDS011;9237;48.590;8.854;2023-08-07T08:30:22;0.70;;;0.70;;
18224;SDS011;9237;48.590;8.854;2023-08-07T08:32:49;0.70;;;0.70;;
18224;SDS011;9237;48.590;8.854;2023-08-07T08:35:16;0.70;;;0.70;;
18224;SDS011;9237;48.590;8.854;2023-08-07T08:37:43;0.70;;;0.70;;
18224;SDS011;9237;48.590;8.854;2023-08-07T08:40:10;0.70;;;0.70;;
18224;SDS011;9237;48.590;8.854;2023-08-07T08:42:41;0.70;;;0.70;;
18224;SDS011;9237;48.590;8.854;2023-08-07T08:45:09;0.70;;;0.70;;
18224;SDS011;9237;48.590;8.854;2023-08-07T08:47:40;0.70;;;0.70;;
18224;SDS011;9237;48.590;8.854;2023-08-07T08:50:09;0.70;;;0.70;;
18224;SDS011;9237;48.590;8.854;2023-08-07T08:52:37;0.70;;;0.70;;
18224;SDS011;9237;48.590;8.854;2023-08-07T08:55:07;0.70;;;0.70;;
18224;SDS011;9237;48.590;8.854;2023-08-07T08:57:35;0.60;;;0.60;;
18224;SDS011;9237;48.590;8.854;2023-08-07T09:00:03;0.70;;;0.70;;
18224;SDS011;9237;48.590;8.854;2023-08-07T09:02:41;0.60;;;0.60;;
18224;SDS011;9237;48.590;8.854;2023-08-07T09:05:09;0.70;;;0.70;;
18224;SDS011;9237;48.590;8.854;2023-08-07T09:07:36;0.63;;;0.63;;
18224;SDS011;9237;48.590;8.854;2023-08-07T09:10:04;0.60;;;0.60;;
18224;SDS011;9237;48.590;8.854;2023-08-07T09:12:32;0.63;;;0.63;;
18224;SDS011;9237;48.590;8.854;2023-08-07T09:15:01;0.60;;;0.60;;
18224;SDS011;9237;48.590;8.854;2023-08-07T09:17:29;0.70;;;0.70;;
18224;SDS011;9237;48.590;8.854;2023-08-07T09:20:01;0.63;;;0.63;;
18224;SDS011;9237;48.590;8.854;2023-08-07T09:22:29;0.70;;;0.70;;
18224;SDS011;9237;48.590;8.854;2023-08-07T09:24:56;0.63;;;0.63;;
18224;SDS011;9237;48.590;8.854;2023-08-07T09:27:25;0.70;;;0.70;;
18224;SDS011;9237;48.590;8.854;2023-08-07T09:29:51;0.60;;;0.60;;
18224;SDS011;9237;48.590;8.854;2023-08-07T09:32:21;0.70;;;0.70;;
18224;SDS011;9237;48.590;8.854;2023-08-07T09:34:49;0.70;;;0.70;;
18224;SDS011;9237;48.590;8.854;2023-08-07T09:37:18;0.60;;;0.60;;
18224;SDS011;9237;48.590;8.854;2023-08-07T09:39:45;0.60;;;0.60;;
18224;SDS011;9237;48.590;8.854;2023-08-07T09:42:13;0.60;;;0.60;;
18224;SDS011;9237;48.590;8.854;2023-08-07T09:44:40;0.60;;;0.60;;
18224;SDS011;9237;48.590;8.854;2023-08-07T09:47:11;0.60;;;0.60;;
18224;SDS011;9237;48.590;8.854;2023-08-07T09:49:39;0.60;;;0.60;;
18224;SDS011;9237;48.590;8.854;2023-08-07T09:52:06;0.60;;;0.60;;
18224;SDS011;9237;48.590;8.854;2023-08-07T09:54:35;0.60;;;0.60;;
18224;SDS011;9237;48.590;8.854;2023-08-07T09:57:02;0.60;;;0.60;;
18224;SDS011;9237;48.590;8.854;2023-08-07T09:59:33;0.60;;;0.60;;
18224;SDS011;9237;48.590;8.854;2023-08-07T10:02:01;0.60;;;0.60;;
18224;SDS011;9237;48.590;8.854;2023-08-07T10:04:29;0.60;;;0.60;;
18224;SDS011;9237;48.590;8.854;2023-08-07T10:06:56;0.60;;;0.60;;
18224;SDS011;9237;48.590;8.854;2023-08-07T10:09:23;0.60;;;0.60;;
18224;SDS011;9237;48.590;8.854;2023-08-07T10:11:51;0.50;;;0.50;;
18224;SDS011;9237;48.590;8.854;2023-08-07T10:14:18;0.50;;;0.50;;
18224;SDS011;9237;48.590;8.854;2023-08-07T10:16:45;0.60;;;0.60;;
18224;SDS011;9237;48.590;8.854;2023-08-07T10:19:12;0.60;;;0.60;;
18224;SDS011;9237;48.590;8.854;2023-08-07T10:21:40;0.60;;;0.60;;
18224;SDS011;9237;48.590;8.854;2023-08-07T10:24:08;0.50;;;0.50;;
18224;SDS011;9237;48.590;8.854;2023-08-07T10:26:35;0.50;;;0.50;;
18224;SDS011;9237;48.590;8.854;2023-08-07T10:29:09;0.60;;;0.60;;
18224;SDS011;9237;48.590;8.854;2023-08-07T10:31:39;0.60;;;0.60;;
18224;SDS011;9237;48.590;8.854;2023-08-07T10:34:08;0.60;;;0.60;;
18224;SDS011;9237;48.590;8.854;2023-08-07T10:36:35;0.60;;;0.60;;
18224;SDS011;9237;48.590;8.854;2023-08-07T10:39:07;0.60;;;0.60;;
18224;SDS011;9237;48.590;8.854;2023-08-07T10:41:38;0.60;;;0.60;;
18224;SDS011;9237;48.590;8.854;2023-08-07T10:44:17;0.60;;;0.60;;
18224;SDS011;9237;48.590;8.854;2023-08-07T10:46:48;0.60;;;0.60;;
18224;SDS011;9237;48.590;8.854;2023-08-07T10:52:07;0.60;;;0.60;;
18224;SDS011;9237;48.590;8.854;2023-08-07T10:54:36;0.60;;;0.60;;
18224;SDS011;9237;48.590;8.854;2023-08-07T10:57:09;0.70;;;0.70;;
18224;SDS011;9237;48.590;8.854;2023-08-07T10:59:39;0.60;;;0.60;;
18224;SDS011;9237;48.590;8.854;2023-08-07T11:02:11;0.60;;;0.60;;
18224;SDS011;9237;48.590;8.854;2023-08-07T11:04:39;0.60;;;0.60;;
18224;SDS011;9237;48.590;8.854;2023-08-07T11:07:06;0.60;;;0.60;;
18224;SDS011;9237;48.590;8.854;2023-08-07T11:09:33;0.60;;;0.60;;
18224;SDS011;9237;48.590;8.854;2023-08-07T11:12:00;0.60;;;0.60;;
18224;SDS011;9237;48.590;8.854;2023-08-07T11:14:27;0.60;;;0.60;;
18224;SDS011;9237;48.590;8.854;2023-08-07T11:16:55;0.60;;;0.60;;
18224;SDS011;9237;48.590;8.854;2023-08-07T11:19:22;0.60;;;0.60;;
18224;SDS011;9237;48.590;8.854;2023-08-07T11:21:49;0.60;;;0.60;;
18224;SDS011;9237;48.590;8.854;2023-08-07T11:24:16;0.60;;;0.60;;
18224;SDS011;9237;48.590;8.854;2023-08-07T11:26:45;0.60;;;0.60;;
18224;SDS011;9237;48.590;8.854;2023-08-07T11:29:15;0.60;;;0.60;;
18224;SDS011;9237;48.590;8.854;2023-08-07T11:31:43;0.60;;;0.60;;
18224;SDS011;9237;48.590;8.854;2023-08-07T11:34:11;0.60;;;0.60;;
18224;SDS011;9237;48.590;8.854;2023-08-07T11:36:40;0.70;;;0.70;;
18224;SDS011;9237;48.590;8.854;2023-08-07T11:39:08;0.70;;;0.70;;
18224;SDS011;9237;48.590;8.854;2023-08-07T11:41:35;0.70;;;0.70;;
18224;SDS011;9237;48.590;8.854;2023-08-07T11:44:02;0.70;;;0.70;;
18224;SDS011;9237;48.590;8.854;2023-08-07T11:46:29;0.60;;;0.60;;
18224;SDS011;9237;48.590;8.854;2023-08-07T11:48:56;0.70;;;0.70;;
18224;SDS011;9237;48.590;8.854;2023-08-07T11:51:24;0.70;;;0.70;;
18224;SDS011;9237;48.590;8.854;2023-08-07T11:53:51;0.70;;;0.70;;
18224;SDS011;9237;48.590;8.854;2023-08-07T11:56:22;0.70;;;0.70;;
18224;SDS011;9237;48.590;8.854;2023-08-07T11:58:48;0.70;;;0.70;;
18224;SDS011;9237;48.590;8.854;2023-08-07T12:01:18;0.70;;;0.70;;
18224;SDS011;9237;48.590;8.854;2023-08-07T12:03:49;0.70;;;0.70;;
18224;SDS011;9237;48.590;8.854;2023-08-07T12:06:18;0.70;;;0.70;;
18224;SDS011;9237;48.590;8.854;2023-08-07T12:08:48;0.70;;;0.70;;
18224;SDS011;9237;48.590;8.854;2023-08-07T12:11:16;0.70;;;0.70;;
18224;SDS011;9237;48.590;8.854;2023-08-07T12:13:43;0.60;;;0.60;;
18224;SDS011;9237;48.590;8.854;2023-08-07T12:16:11;0.60;;;0.60;;
18224;SDS011;9237;48.590;8.854;2023-08-07T12:18:42;0.70;;;0.70;;
18224;SDS011;9237;48.590;8.854;2023-08-07T12:21:10;0.70;;;0.70;;
18224;SDS011;9237;48.590;8.854;2023-08-07T12:23:36;0.70;;;0.70;;
18224;SDS011;9237;48.590;8.854;2023-08-07T12:26:05;0.70;;;0.70;;
18224;SDS011;9237;48.590;8.854;2023-08-07T12:28:32;0.67;;;0.67;;
18224;SDS011;9237;48.590;8.854;2023-08-07T12:30:59;0.60;;;0.60;;
18224;SDS011;9237;48.590;8.854;2023-08-07T12:33:25;0.63;;;0.63;;
18224;SDS011;9237;48.590;8.854;2023-08-07T12:35:52;0.60;;;0.60;;
18224;SDS011;9237;48.590;8.854;2023-08-07T12:38:19;0.60;;;0.60;;
18224;SDS011;9237;48.590;8.854;2023-08-07T12:40:46;0.60;;;0.60;;
18224;SDS011;9237;48.590;8.854;2023-08-07T12:43:14;0.60;;;0.60;;
18224;SDS011;9237;48.590;8.854;2023-08-07T12:45:41;0.77;;;0.77;;
18224;SDS011;9237;48.590;8.854;2023-08-07T12:48:08;0.70;;;0.70;;
18224;SDS011;9237;48.590;8.854;2023-08-07T12:50:35;0.70;;;0.70;;
18224;SDS011;9237;48.590;8.854;2023-08-07T12:53:02;0.70;;;0.70;;
18224;SDS011;9237;48.590;8.854;2023-08-07T12:55:29;0.70;;;0.70;;
18224;SDS011;9237;48.590;8.854;2023-08-07T12:57:56;0.60;;;0.60;;
18224;SDS011;9237;48.590;8.854;2023-08-07T13:00:25;0.60;;;0.60;;
18224;SDS011;9237;48.590;8.854;2023-08-07T13:02:52;0.60;;;0.60;;
18224;SDS011;9237;48.590;8.854;2023-08-07T13:05:20;0.57;;;0.57;;
18224;SDS011;9237;48.590;8.854;2023-08-07T13:07:48;0.50;;;0.50;;
18224;SDS011;9237;48.590;8.854;2023-08-07T13:10:15;0.60;;;0.60;;
18224;SDS011;9237;48.590;8.854;2023-08-07T13:12:43;0.67;;;0.67;;
18224;SDS011;9237;48.590;8.854;2023-08-07T13:15:13;0.60;;;0.60;;
18224;SDS011;9237;48.590;8.854;2023-08-07T13:17:42;0.60;;;0.60;;
18224;SDS011;9237;48.590;8.854;2023-08-07T13:20:10;0.67;;;0.67;;
18224;SDS011;9237;48.590;8.854;2023-08-07T13:22:39;0.70;;;0.70;;
18224;SDS011;9237;48.590;8.854;2023-08-07T13:25:08;0.60;;;0.60;;
18224;SDS011;9237;48.590;8.854;2023-08-07T13:27:36;0.60;;;0.60;;
18224;SDS011;9237;48.590;8.854;2023-08-07T13:30:04;0.70;;;0.70;;
18224;SDS011;9237;48.590;8.854;2023-08-07T13:32:32;0.70;;;0.70;;
18224;SDS011;9237;48.590;8.854;2023-08-07T13:35:00;0.60;;;0.60;;
18224;SDS011;9237;48.590;8.854;2023-08-07T13:37:28;0.60;;;0.60;;
18224;SDS011;9237;48.590;8.854;2023-08-07T13:39:54;0.60;;;0.60;;
18224;SDS011;9237;48.590;8.854;2023-08-07T13:42:23;0.60;;;0.60;;
18224;SDS011;9237;48.590;8.854;2023-08-07T13:44:50;0.60;;;0.60;;
18224;SDS011;9237;48.590;8.854;2023-08-07T13:47:17;0.60;;;0.60;;
18224;SDS011;9237;48.590;8.854;2023-08-07T13:49:45;0.60;;;0.60;;
18224;SDS011;9237;48.590;8.854;2023-08-07T13:52:13;0.60;;;0.60;;
18224;SDS011;9237;48.590;8.854;2023-08-07T13:54:40;0.60;;;0.60;;
18224;SDS011;9237;48.590;8.854;2023-08-07T13:57:07;0.50;;;0.50;;
18224;SDS011;9237;48.590;8.854;2023-08-07T13:59:33;0.60;;;0.60;;
18224;SDS011;9237;48.590;8.854;2023-08-07T14:02:00;0.50;;;0.50;;
18224;SDS011;9237;48.590;8.854;2023-08-07T14:04:27;0.50;;;0.50;;
18224;SDS011;9237;48.590;8.854;2023-08-07T14:06:54;0.60;;;0.60;;
18224;SDS011;9237;48.590;8.854;2023-08-07T14:09:22;0.50;;;0.50;;
18224;SDS011;9237;48.590;8.854;2023-08-07T14:11:49;0.50;;;0.50;;
18224;SDS011;9237;48.590;8.854;2023-08-07T14:14:16;0.50;;;0.50;;
18224;SDS011;9237;48.590;8.854;2023-08-07T14:16:42;0.53;;;0.53;;
18224;SDS011;9237;48.590;8.854;2023-08-07T14:19:09;0.50;;;0.50;;
18224;SDS011;9237;48.590;8.854;2023-08-07T14:21:36;0.70;;;0.70;;
18224;SDS011;9237;48.590;8.854;2023-08-07T14:24:03;0.60;;;0.60;;
18224;SDS011;9237;48.590;8.854;2023-08-07T14:26:32;0.70;;;0.70;;
18224;SDS011;9237;48.590;8.854;2023-08-07T14:28:59;0.70;;;0.70;;
18224;SDS011;9237;48.590;8.854;2023-08-07T14:31:25;0.60;;;0.60;;
18224;SDS011;9237;48.590;8.854;2023-08-07T14:33:52;0.70;;;0.70;;
18224;SDS011;9237;48.590;8.854;2023-08-07T14:36:19;0.70;;;0.70;;
18224;SDS011;9237;48.590;8.854;2023-08-07T14:38:46;0.70;;;0.70;;
18224;SDS011;9237;48.590;8.854;2023-08-07T14:41:13;0.70;;;0.70;;
18224;SDS011;9237;48.590;8.854;2023-08-07T14:43:41;0.60;;;0.60;;
18224;SDS011;9237;48.590;8.854;2023-08-07T14:46:07;0.60;;;0.60;;
18224;SDS011;9237;48.590;8.854;2023-08-07T14:48:34;0.60;;;0.60;;
18224;SDS011;9237;48.590;8.854;2023-08-07T14:51:02;0.60;;;0.60;;
18224;SDS011;9237;48.590;8.854;2023-08-07T14:53:29;0.60;;;0.60;;
18224;SDS011;9237;48.590;8.854;2023-08-07T14:55:55;0.60;;;0.60;;
18224;SDS011;9237;48.590;8.854;2023-08-07T14:58:22;0.60;;;0.60;;
18224;SDS011;9237;48.590;8.854;2023-08-07T15:00:51;0.60;;;0.60;;
18224;SDS011;9237;48.590;8.854;2023-08-07T15:03:20;0.60;;;0.60;;
18224;SDS011;9237;48.590;8.854;2023-08-07T15:05:47;0.60;;;0.60;;